Time;durP1;ratioP1;P1;durP2;ratioP2;P2;SDS_P1;SDS_P2;PMS_P1;PMS_P2;Temp;Humidity;BMP_temperature;BMP_pressure;BME280_temperature;BME280_humidity;BME280_pressure;Samples;Min_cycle;Max_cycle;Signal;HPM_P1;HPM_P2
2021/08/10 00:02:23;;;;;;;2.60;1.07;;;;;;;15.08;74.08;100982.13;124829;1093;64248;-79
2021/08/10 00:04:51;;;;;;;4.33;1.43;;;;;;;15.12;73.61;100976.41;124799;1093;64236;-75
2021/08/10 00:07:18;;;;;;;4.30;1.35;;;;;;;15.14;73.90;100974.36;124753;1093;64353;-79
2021/08/10 00:09:45;;;;;;;3.17;1.10;;;;;;;15.15;73.44;100967.98;124814;1093;64342;-79
2021/08/10 00:12:12;;;;;;;3.07;1.30;;;;;;;15.16;73.58;100966.97;124764;1092;64378;-78
2021/08/10 00:14:39;;;;;;;2.40;1.03;;;;;;;15.15;73.06;100966.16;124758;1093;64285;-78
2021/08/10 00:17:07;;;;;;;4.20;1.43;;;;;;;15.13;73.35;100968.20;124735;1092;64870;-77
2021/08/10 00:19:44;;;;;;;2.87;1.40;;;;;;;15.09;73.63;100967.77;124741;1093;64218;-79
2021/08/10 00:22:11;;;;;;;2.37;1.33;;;;;;;15.04;73.49;100962.17;124765;1093;64342;-82
2021/08/10 00:24:38;;;;;;;2.33;1.00;;;;;;;14.97;73.66;100958.65;124814;1093;64413;-79
2021/08/10 00:27:05;;;;;;;1.93;0.93;;;;;;;14.91;74.21;100955.95;124810;1092;64195;-78
2021/08/10 00:29:33;;;;;;;1.57;0.90;;;;;;;14.87;74.04;100952.83;124769;1092;64198;-77
2021/08/10 00:31:59;;;;;;;3.03;1.27;;;;;;;14.81;74.13;100958.95;124777;1093;64288;-79
2021/08/10 00:34:27;;;;;;;2.80;1.27;;;;;;;14.75;74.59;100955.25;124870;1092;64198;-77
2021/08/10 00:36:54;;;;;;;3.40;1.20;;;;;;;14.68;74.67;100955.20;124794;1093;64288;-77
2021/08/10 00:39:21;;;;;;;3.47;1.17;;;;;;;14.63;74.83;100951.47;125051;1093;64187;-78
2021/08/10 00:41:48;;;;;;;2.47;1.20;;;;;;;14.56;74.91;100964.77;125007;1092;64285;-77
2021/08/10 00:44:15;;;;;;;2.75;1.60;;;;;;;14.51;75.12;100956.47;124930;1092;64306;-78
2021/08/10 00:46:42;;;;;;;3.07;1.50;;;;;;;14.45;75.31;100954.58;124841;1093;64292;-79
2021/08/10 00:49:09;;;;;;;3.60;1.40;;;;;;;14.38;75.57;100959.87;124790;1092;64384;-80
2021/08/10 00:51:36;;;;;;;3.30;1.37;;;;;;;14.34;76.11;100957.78;124827;1093;64358;-77
2021/08/10 00:54:05;;;;;;;4.33;1.70;;;;;;;14.25;75.97;100957.92;124761;1092;64277;-78
2021/08/10 00:56:32;;;;;;;3.90;1.30;;;;;;;14.19;76.42;100955.20;124841;1093;65177;-77
2021/08/10 00:59:00;;;;;;;2.67;1.47;;;;;;;14.14;76.77;100952.30;124748;1093;64218;-78
2021/08/10 01:01:28;;;;;;;4.77;1.50;;;;;;;14.05;76.63;100943.60;124843;1093;64310;-79
2021/08/10 01:03:55;;;;;;;2.17;1.17;;;;;;;13.99;77.28;100955.03;124803;1093;64256;-76
2021/08/10 01:06:56;;;;;;;4.13;1.50;;;;;;;13.94;77.35;100962.77;124799;1092;64288;-79
2021/08/10 01:09:40;;;;;;;2.67;1.40;;;;;;;13.83;77.58;100956.09;124658;1093;64227;-78
2021/08/10 01:12:14;;;;;;;3.60;1.80;;;;;;;13.75;77.99;100959.73;124856;1093;64195;-78
2021/08/10 01:15:01;;;;;;;6.37;1.30;;;;;;;13.66;78.30;100951.03;124800;1093;64249;-78
2021/08/10 01:17:41;;;;;;;3.47;1.50;;;;;;;13.57;78.56;100954.80;125045;1093;64186;-79
2021/08/10 01:20:36;;;;;;;2.97;1.30;;;;;;;13.48;78.85;100952.45;124840;1092;64221;-79
2021/08/10 01:23:07;;;;;;;6.10;2.27;;;;;;;13.39;79.34;100955.23;124853;1093;64239;-78
2021/08/10 01:25:56;;;;;;;4.00;1.47;;;;;;;13.34;79.47;100957.61;124818;1093;64298;-79
2021/08/10 01:28:37;;;;;;;2.87;1.50;;;;;;;13.29;79.83;100954.69;124792;1093;64329;-81
2021/08/10 01:31:07;;;;;;;3.60;1.23;;;;;;;13.24;79.98;100954.41;124700;1093;64377;-79
2021/08/10 01:33:39;;;;;;;3.80;1.80;;;;;;;13.21;80.21;100954.76;124776;1093;64316;-80
2021/08/10 01:36:09;;;;;;;5.87;1.87;;;;;;;13.17;80.44;100961.47;124738;1093;64291;-79
2021/08/10 01:38:41;;;;;;;5.23;1.77;;;;;;;13.12;80.69;100954.03;125022;1093;64245;-78
2021/08/10 01:41:12;;;;;;;3.07;1.43;;;;;;;13.06;81.16;100960.92;125000;1093;64432;-78
2021/08/10 01:43:41;;;;;;;4.83;1.50;;;;;;;13.03;81.24;100957.82;125013;1092;64300;-79
2021/08/10 01:46:08;;;;;;;3.30;1.33;;;;;;;13.00;81.65;100952.84;124923;1093;64224;-79
2021/08/10 01:48:36;;;;;;;2.60;1.40;;;;;;;12.97;81.54;100946.05;124734;1093;64343;-81
2021/08/10 01:51:04;;;;;;;3.47;1.50;;;;;;;12.95;81.86;100948.08;124782;1093;64290;-79
2021/08/10 01:53:31;;;;;;;3.77;1.70;;;;;;;12.95;82.17;100948.08;124848;1092;64295;-80
2021/08/10 01:55:59;;;;;;;4.23;1.60;;;;;;;12.94;81.89;100938.45;124774;1093;64249;-80
2021/08/10 01:58:28;;;;;;;2.80;1.30;;;;;;;12.97;82.10;100929.27;124753;1093;64224;-78
2021/08/10 02:00:57;;;;;;;7.83;1.77;;;;;;;12.98;82.20;100937.05;124797;1093;64368;-77
2021/08/10 02:03:26;;;;;;;3.30;1.40;;;;;;;13.01;82.34;100935.88;124856;1093;64288;-78
2021/08/10 02:05:54;;;;;;;3.53;2.10;;;;;;;13.02;82.24;100943.66;124808;1092;64297;-79
2021/08/10 02:08:23;;;;;;;3.13;1.40;;;;;;;13.05;81.99;100937.16;124815;1093;64226;-77
2021/08/10 02:10:52;;;;;;;2.93;1.40;;;;;;;13.08;81.98;100942.09;124782;1093;64189;-77
2021/08/10 02:13:19;;;;;;;2.63;1.30;;;;;;;13.11;81.87;100944.41;124756;1093;64282;-77
2021/08/10 02:15:49;;;;;;;3.33;1.37;;;;;;;13.15;81.84;100958.98;124998;1093;64237;-76
2021/08/10 02:18:19;;;;;;;3.50;1.40;;;;;;;13.20;82.14;100947.80;124786;1092;64403;-78
2021/08/10 02:20:48;;;;;;;4.83;1.60;;;;;;;13.25;82.09;100950.71;124858;1093;64291;-78
2021/08/10 02:23:16;;;;;;;3.47;1.30;;;;;;;13.29;81.93;100957.36;124822;1093;64358;-81
2021/08/10 02:25:46;;;;;;;3.90;1.63;;;;;;;13.32;81.86;100951.64;124800;1092;64296;-80
2021/08/10 02:28:17;;;;;;;4.93;1.47;;;;;;;13.35;81.77;100940.63;124980;1093;64163;-79
2021/08/10 02:30:52;;;;;;;3.70;1.60;;;;;;;13.38;81.86;100936.75;124785;1093;64386;-78
2021/08/10 02:33:25;;;;;;;5.07;1.67;;;;;;;13.39;81.66;100944.56;124958;1093;64240;-80
2021/08/10 02:36:00;;;;;;;5.83;1.47;;;;;;;13.44;81.64;100942.16;124829;1092;66472;-79
2021/08/10 02:38:28;;;;;;;;;;;;;;;13.49;81.92;100932.77;124794;1093;64317;-79
2021/08/10 02:40:57;;;;;;;2.97;1.40;;;;;;;13.54;82.11;100939.20;124842;1093;64371;-77
2021/08/10 02:43:27;;;;;;;2.77;1.37;;;;;;;13.60;81.83;100937.60;124773;1093;64262;-79
2021/08/10 02:45:55;;;;;;;3.55;0.90;;;;;;;13.66;81.60;100939.52;124840;1093;64195;-78
2021/08/10 02:48:23;;;;;;;2.37;1.20;;;;;;;13.72;81.49;100936.09;124763;1093;64306;-79
2021/08/10 02:50:50;;;;;;;4.10;1.20;;;;;;;13.79;81.06;100944.16;124904;1093;64246;-77
2021/08/10 02:53:18;;;;;;;2.47;1.10;;;;;;;13.82;81.23;100939.28;124855;1093;64342;-77
2021/08/10 02:55:53;;;;;;;3.67;2.03;;;;;;;13.86;80.99;100935.22;124719;1093;64216;-77
2021/08/10 02:58:25;;;;;;;4.20;1.30;;;;;;;13.90;81.12;100929.48;124825;1093;64271;-79
2021/08/10 03:00:57;;;;;;;2.40;0.93;;;;;;;13.92;80.82;100932.79;124880;1093;64288;-79
2021/08/10 03:03:29;;;;;;;5.50;1.50;;;;;;;13.96;81.04;100934.91;124862;1093;64316;-77
2021/08/10 03:06:00;;;;;;;6.10;1.20;;;;;;;13.99;81.17;100952.37;124853;1093;64288;-80
2021/08/10 03:08:34;;;;;;;2.03;1.00;;;;;;;14.02;81.21;100944.78;124796;1093;64341;-80
2021/08/10 03:11:03;;;;;;;2.40;1.13;;;;;;;14.06;81.09;100947.91;124848;1093;64276;-79
2021/08/10 03:13:44;;;;;;;2.40;0.90;;;;;;;14.09;81.27;100939.53;124804;1093;64281;-79
2021/08/10 03:16:14;;;;;;;2.40;0.90;;;;;;;14.10;81.18;100940.36;124897;1093;64297;-80
2021/08/10 03:18:46;;;;;;;2.33;1.00;;;;;;;14.13;81.34;100945.30;124923;1093;64291;-77
2021/08/10 03:21:14;;;;;;;2.40;1.13;;;;;;;14.14;81.37;100939.77;124870;1092;64291;-79
2021/08/10 03:23:41;;;;;;;2.40;1.10;;;;;;;14.17;81.31;100949.23;124768;1093;64280;-79
2021/08/10 03:26:10;;;;;;;1.77;1.03;;;;;;;14.21;81.53;100942.49;124777;1093;65897;-79
2021/08/10 03:28:41;;;;;;;2.40;1.10;;;;;;;14.23;81.52;100946.61;124882;1093;64272;-80
2021/08/10 03:31:10;;;;;;;2.97;1.13;;;;;;;14.28;81.83;100960.22;124752;1093;64199;-81
2021/08/10 03:33:38;;;;;;;2.03;1.07;;;;;;;14.32;81.60;100949.96;124839;1093;64365;-81
2021/08/10 03:36:05;;;;;;;2.20;0.90;;;;;;;14.37;81.93;100952.08;124710;1093;64320;-78
2021/08/10 03:38:36;;;;;;;3.50;1.47;;;;;;;14.39;81.94;100955.38;124768;1093;64227;-81
2021/08/10 03:41:05;;;;;;;2.17;1.00;;;;;;;14.40;82.08;100959.69;124838;1092;64288;-78
2021/08/10 03:43:35;;;;;;;2.53;1.07;;;;;;;14.40;82.15;100951.67;124824;1093;64722;-79
2021/08/10 03:46:04;;;;;;;5.10;1.20;;;;;;;14.40;81.98;100946.34;124741;1092;64288;-79
2021/08/10 03:48:43;;;;;;;2.97;0.90;;;;;;;14.41;82.27;100937.33;124803;1093;64330;-81
2021/08/10 03:51:12;;;;;;;5.03;1.57;;;;;;;14.41;82.60;100938.14;124840;1093;64222;-77
2021/08/10 03:53:41;;;;;;;2.93;1.10;;;;;;;14.44;82.50;100932.41;124728;1093;64291;-80
2021/08/10 03:56:09;;;;;;;2.07;1.03;;;;;;;14.47;81.73;100931.19;124847;1091;64165;-79
2021/08/10 03:58:38;;;;;;;5.60;1.20;;;;;;;14.50;81.78;100938.00;124729;1093;65549;-75
2021/08/10 04:01:06;;;;;;;2.17;1.00;;;;;;;14.53;81.65;100941.09;124810;1093;64198;-76
2021/08/10 04:03:36;;;;;;;2.73;1.20;;;;;;;14.56;81.77;100935.41;124759;1093;64275;-78
2021/08/10 04:06:06;;;;;;;2.47;1.20;;;;;;;14.59;81.54;100932.33;124681;1092;64311;-80
2021/08/10 04:08:34;;;;;;;3.33;1.07;;;;;;;14.61;81.68;100927.63;124696;1093;64203;-78
2021/08/10 04:11:01;;;;;;;2.70;1.30;;;;;;;14.63;81.48;100935.45;124627;1091;64304;-79
2021/08/10 04:13:31;;;;;;;2.87;1.00;;;;;;;14.65;81.18;100936.89;124756;1093;64333;-79
2021/08/10 04:16:02;;;;;;;3.17;1.13;;;;;;;14.67;81.07;100926.02;124787;1093;64300;-79
2021/08/10 04:18:30;;;;;;;2.83;1.03;;;;;;;14.66;81.18;100925.20;124788;1093;64288;-77
2021/08/10 04:20:57;;;;;;;2.33;1.10;;;;;;;14.67;81.15;100932.19;124865;1092;64198;-78
2021/08/10 04:23:24;;;;;;;2.60;0.97;;;;;;;14.69;81.15;100929.33;124776;1093;64413;-78
2021/08/10 04:25:52;;;;;;;2.73;1.50;;;;;;;14.69;80.87;100923.98;124739;1093;64299;-80
2021/08/10 04:28:19;;;;;;;2.10;0.80;;;;;;;14.71;80.61;100926.47;124796;1093;64291;-78
2021/08/10 04:30:46;;;;;;;2.03;1.27;;;;;;;14.70;80.87;100935.48;124902;1093;64277;-80
2021/08/10 04:33:15;;;;;;;3.27;1.20;;;;;;;14.70;81.34;100932.81;124774;1093;64236;-77
2021/08/10 04:35:42;;;;;;;4.43;1.10;;;;;;;14.71;80.93;100926.47;124782;1093;64326;-84
2021/08/10 04:38:10;;;;;;;3.07;1.57;;;;;;;14.71;80.55;100934.48;124770;1092;64243;-78
2021/08/10 04:40:39;;;;;;;2.70;1.00;;;;;;;14.72;80.77;100934.26;124722;1093;64291;-78
2021/08/10 04:43:08;;;;;;;4.30;1.20;;;;;;;14.76;80.59;100929.36;124764;1093;64301;-79
2021/08/10 04:45:35;;;;;;;3.87;1.40;;;;;;;14.81;80.27;100937.59;124784;1093;64271;-78
2021/08/10 04:48:03;;;;;;;3.05;1.00;;;;;;;14.88;79.77;100941.14;124737;1093;64397;-79
2021/08/10 04:50:30;;;;;;;2.13;0.93;;;;;;;14.96;79.92;100934.80;124852;1093;64215;-78
2021/08/10 04:52:57;;;;;;;3.87;1.20;;;;;;;15.04;79.44;100940.80;124763;1093;64371;-78
2021/08/10 04:55:24;;;;;;;3.20;1.40;;;;;;;15.14;79.18;100947.64;124798;1092;64280;-78
2021/08/10 04:57:52;;;;;;;3.97;1.30;;;;;;;15.23;78.90;100941.09;124700;1093;64419;-79
2021/08/10 05:00:19;;;;;;;3.10;1.73;;;;;;;15.29;77.95;100935.77;124784;1093;64399;-79
2021/08/10 05:02:46;;;;;;;4.77;1.40;;;;;;;15.36;77.94;100938.46;124811;1093;64272;-81
2021/08/10 05:05:14;;;;;;;4.63;1.40;;;;;;;15.40;77.73;100937.03;124935;1093;64285;-79
2021/08/10 05:07:42;;;;;;;4.63;1.50;;;;;;;15.47;77.53;100937.90;124799;1093;64298;-79
2021/08/10 05:10:10;;;;;;;1.63;0.90;;;;;;;15.52;77.40;100936.47;124822;1093;64313;-79
2021/08/10 05:12:37;;;;;;;3.30;1.10;;;;;;;15.56;77.40;100935.86;124795;1092;64288;-77
2021/08/10 05:15:05;;;;;;;2.23;0.80;;;;;;;15.59;76.88;100934.63;124773;1093;64288;-79
2021/08/10 05:17:32;;;;;;;2.40;1.07;;;;;;;15.59;76.95;100946.14;124840;1093;64283;-79
2021/08/10 05:20:00;;;;;;;4.40;1.33;;;;;;;15.59;77.03;100940.80;124819;1093;64239;-79
2021/08/10 05:22:27;;;;;;;2.00;1.00;;;;;;;15.61;76.58;100932.58;124757;1093;64197;-77
2021/08/10 05:24:54;;;;;;;2.40;1.20;;;;;;;15.61;76.72;100928.05;124809;1093;64246;-77
2021/08/10 05:27:21;;;;;;;2.37;0.90;;;;;;;15.63;76.64;100927.86;124820;1092;64728;-79
2021/08/10 05:29:48;;;;;;;4.23;1.10;;;;;;;15.65;76.78;100934.64;124758;1093;64386;-79
2021/08/10 05:32:15;;;;;;;2.60;1.40;;;;;;;15.65;76.83;100936.50;124855;1093;64597;-78
2021/08/10 05:34:42;;;;;;;3.43;1.33;;;;;;;15.65;76.72;100941.84;124802;1093;64192;-82
2021/08/10 05:37:09;;;;;;;2.43;1.53;;;;;;;15.66;76.85;100930.11;124757;1093;64373;-78
2021/08/10 05:39:36;;;;;;;1.43;0.83;;;;;;;15.65;77.12;100941.84;124803;1093;65075;-78
2021/08/10 05:42:04;;;;;;;1.97;1.27;;;;;;;15.64;76.88;100942.86;124785;1093;64299;-78
2021/08/10 05:44:31;;;;;;;3.13;1.20;;;;;;;15.65;77.10;100939.98;124872;1093;64260;-79
2021/08/10 05:46:59;;;;;;;8.15;2.55;;;;;;;15.64;77.56;100937.51;124759;1094;64220;-79
2021/08/10 05:49:26;;;;;;;3.33;1.17;;;;;;;15.63;77.19;100941.22;124804;1093;64291;-78
2021/08/10 05:51:53;;;;;;;3.30;1.30;;;;;;;15.61;77.01;100937.92;124679;1093;64294;-79
2021/08/10 05:54:20;;;;;;;3.00;1.10;;;;;;;15.59;77.54;100951.49;124797;1093;64338;-79
2021/08/10 05:56:48;;;;;;;4.33;1.40;;;;;;;15.58;77.63;100947.18;124726;1093;64291;-79
2021/08/10 05:59:15;;;;;;;2.70;1.30;;;;;;;15.59;77.72;100945.33;124778;1093;64217;-78
2021/08/10 06:01:42;;;;;;;1.97;1.00;;;;;;;15.58;77.55;100947.18;124794;1092;64320;-80
2021/08/10 06:04:10;;;;;;;2.27;0.93;;;;;;;15.59;77.76;100948.81;124793;1092;64291;-77
2021/08/10 06:06:37;;;;;;;4.40;1.10;;;;;;;15.62;77.43;100944.91;124715;1093;64358;-80
2021/08/10 06:09:05;;;;;;;3.63;1.00;;;;;;;15.64;77.56;100940.19;124779;1093;64329;-79
2021/08/10 06:11:33;;;;;;;2.73;1.27;;;;;;;15.66;77.36;100941.66;124882;1092;64218;-77
2021/08/10 06:14:54;;;;;;;3.53;1.50;;;;;;;15.67;78.00;100947.81;124811;1093;64282;-79
2021/08/10 06:17:20;;;;;;;4.30;0.90;;;;;;;15.68;78.13;100944.10;124836;1093;64221;-78
2021/08/10 06:19:47;;;;;;;2.07;1.13;;;;;;;15.69;77.74;100956.47;124748;1093;64336;-81
2021/08/10 06:22:17;;;;;;;4.23;1.20;;;;;;;15.68;78.08;100955.65;124720;1093;64362;-78
2021/08/10 06:24:44;;;;;;;2.67;1.10;;;;;;;15.68;78.49;100961.00;124689;1093;64827;-79
2021/08/10 06:27:11;;;;;;;4.57;1.10;;;;;;;15.69;78.28;100972.52;124812;1093;64329;-78
2021/08/10 06:29:38;;;;;;;2.13;1.10;;;;;;;15.69;78.46;100975.19;124712;1092;64291;-79
2021/08/10 06:32:05;;;;;;;3.00;1.15;;;;;;;15.72;78.64;100982.00;124720;1092;64147;-80
2021/08/10 06:34:33;;;;;;;3.60;1.33;;;;;;;15.72;78.45;100974.80;124798;1093;64288;-79
2021/08/10 06:37:00;;;;;;;2.47;1.10;;;;;;;15.74;78.27;100969.26;124808;1091;64269;-78
2021/08/10 06:39:27;;;;;;;2.53;1.37;;;;;;;15.75;78.46;100965.58;124802;1092;64349;-78
2021/08/10 06:41:54;;;;;;;3.47;1.20;;;;;;;15.77;78.44;100963.48;124715;1093;64287;-75
2021/08/10 06:44:21;;;;;;;6.83;1.40;;;;;;;15.78;78.50;100965.16;124696;1093;64272;-80
2021/08/10 06:46:48;;;;;;;3.70;1.73;;;;;;;15.77;78.59;100964.34;124788;1093;64297;-79
2021/08/10 06:49:15;;;;;;;5.63;1.30;;;;;;;15.75;79.30;100969.06;124821;1093;64271;-81
2021/08/10 06:51:42;;;;;;;3.20;1.30;;;;;;;15.72;79.34;100972.13;124786;1092;64432;-79
2021/08/10 06:54:10;;;;;;;2.67;0.87;;;;;;;15.72;79.10;100974.80;124826;1092;64374;-77
2021/08/10 06:56:37;;;;;;;2.60;1.33;;;;;;;15.72;79.61;100973.98;124827;1093;64275;-77
2021/08/10 06:59:04;;;;;;;4.17;1.10;;;;;;;15.70;79.78;100976.82;125143;1092;64198;-76
2021/08/10 07:01:31;;;;;;;3.40;1.40;;;;;;;15.69;79.95;100967.98;124926;1093;64288;-79
2021/08/10 07:03:58;;;;;;;3.17;1.33;;;;;;;15.70;80.12;100974.14;124865;1092;64317;-79
2021/08/10 07:06:25;;;;;;;2.83;1.20;;;;;;;15.70;80.50;100968.80;125002;1093;64272;-80
2021/08/10 07:08:56;;;;;;;2.00;1.13;;;;;;;15.72;81.10;100965.96;124955;1093;64268;-79
2021/08/10 07:11:23;;;;;;;3.67;1.77;;;;;;;15.71;81.29;100965.11;124912;1093;64281;-79
2021/08/10 07:13:50;;;;;;;2.83;1.00;;;;;;;15.68;81.92;100963.67;124811;1091;64247;-79
2021/08/10 07:16:17;;;;;;;4.57;1.70;;;;;;;15.66;81.80;100947.00;124894;1092;64272;-80
2021/08/10 07:18:44;;;;;;;4.40;1.47;;;;;;;15.66;82.69;100930.95;124757;1092;64335;-80
2021/08/10 07:21:11;;;;;;;3.53;1.50;;;;;;;15.68;82.26;100912.01;124833;1092;64798;-78
2021/08/10 07:23:38;;;;;;;4.63;1.07;;;;;;;15.75;82.51;100902.20;124723;1093;64284;-80
2021/08/10 07:26:05;;;;;;;2.40;1.10;;;;;;;15.85;82.62;100907.97;124799;1093;64294;-81
2021/08/10 07:28:32;;;;;;;1.77;0.90;;;;;;;15.94;82.20;100903.24;124819;1092;64249;-82
2021/08/10 07:31:00;;;;;;;4.70;1.50;;;;;;;16.03;82.58;100901.19;124773;1091;64400;-79
2021/08/10 07:33:27;;;;;;;2.85;1.30;;;;;;;16.14;82.14;100911.27;124770;1093;64195;-85
2021/08/10 07:35:54;;;;;;;6.25;1.40;;;;;;;16.23;82.10;100910.02;124870;1093;64230;-80
2021/08/10 07:38:21;;;;;;;4.67;1.80;;;;;;;16.34;81.85;100923.80;124790;1093;64287;-79
2021/08/10 07:40:50;;;;;;;3.17;1.00;;;;;;;16.42;82.10;100942.34;124806;1093;64345;-77
2021/08/10 07:43:17;;;;;;;2.47;1.00;;;;;;;16.47;82.31;100945.23;124759;1092;64211;-77
2021/08/10 07:45:44;;;;;;;2.53;1.30;;;;;;;16.56;81.65;100945.84;124747;1093;64563;-79
2021/08/10 07:48:16;;;;;;;3.57;1.70;;;;;;;16.76;82.00;100951.96;124802;1093;64872;-81
2021/08/10 07:50:44;;;;;;;3.10;1.23;;;;;;;17.01;80.68;100951.33;124791;1093;64236;-78
2021/08/10 07:53:11;;;;;;;5.40;1.50;;;;;;;17.30;80.33;100947.30;124822;1092;64262;-81
2021/08/10 07:55:38;;;;;;;3.47;1.00;;;;;;;17.44;77.34;100943.50;124787;1093;64252;-78
2021/08/10 07:58:06;;;;;;;5.07;1.73;;;;;;;17.50;75.98;100941.83;124806;1093;64307;-79
2021/08/10 08:00:33;;;;;;;3.23;1.27;;;;;;;17.58;76.08;100943.45;124769;1093;64317;-79
2021/08/10 08:03:00;;;;;;;2.93;1.40;;;;;;;17.60;73.46;100942.19;124810;1093;64275;-80
2021/08/10 08:05:27;;;;;;;4.13;1.30;;;;;;;17.65;72.63;100942.35;124761;1093;64952;-78
2021/08/10 08:07:54;;;;;;;2.40;1.17;;;;;;;17.71;73.24;100940.68;124753;1093;64182;-78
2021/08/10 08:10:22;;;;;;;5.03;1.20;;;;;;;17.83;73.26;100940.82;124754;1093;64311;-78
2021/08/10 08:12:49;;;;;;;4.13;1.30;;;;;;;17.96;73.25;100945.27;124644;1092;64291;-79
2021/08/10 08:15:16;;;;;;;3.67;1.53;;;;;;;17.97;71.95;100941.56;124712;1093;64291;-79
2021/08/10 08:17:45;;;;;;;3.90;2.07;;;;;;;17.97;71.50;100949.62;124729;1093;65413;-79
2021/08/10 08:20:15;;;;;;;3.20;1.30;;;;;;;17.93;71.68;100936.61;124853;1093;64272;-77
2021/08/10 08:22:43;;;;;;;4.40;1.53;;;;;;;17.89;71.59;100940.80;124799;1093;64312;-78
2021/08/10 08:25:12;;;;;;;4.43;1.57;;;;;;;17.91;71.49;100936.05;124736;1093;64415;-78
2021/08/10 08:27:39;;;;;;;5.50;1.30;;;;;;;17.95;72.67;100931.04;124794;1092;64343;-77
2021/08/10 08:30:08;;;;;;;5.73;1.73;;;;;;;17.97;71.60;100931.64;124848;1093;64425;-77
2021/08/10 08:32:35;;;;;;;3.70;1.30;;;;;;;17.86;71.54;100941.22;124855;1093;64310;-77
2021/08/10 08:35:03;;;;;;;3.30;1.40;;;;;;;17.86;71.51;100940.41;124821;1093;64291;-78
2021/08/10 08:37:30;;;;;;;3.85;2.00;;;;;;;17.85;72.34;100934.22;124815;1093;64272;-79
2021/08/10 08:39:57;;;;;;;3.33;1.50;;;;;;;17.96;72.33;100953.33;124705;1093;64361;-79
2021/08/10 08:42:24;;;;;;;2.80;1.30;;;;;;;17.98;72.10;100952.09;124780;1093;64198;-79
2021/08/10 08:44:51;;;;;;;4.73;1.83;;;;;;;17.98;71.54;100946.73;124703;1093;64241;-79
2021/08/10 08:47:22;;;;;;;3.23;1.63;;;;;;;18.04;71.87;100948.54;124765;1093;65467;-78
2021/08/10 08:49:55;;;;;;;2.80;1.40;;;;;;;18.14;71.72;100935.42;124792;1092;64294;-79
2021/08/10 08:52:23;;;;;;;3.10;1.67;;;;;;;18.31;71.17;100932.20;124800;1093;64291;-79
2021/08/10 08:54:51;;;;;;;4.73;1.87;;;;;;;18.47;69.89;100939.70;124845;1093;64416;-79
2021/08/10 08:57:18;;;;;;;4.40;1.97;;;;;;;18.58;68.06;100934.64;124932;1092;64227;-78
2021/08/10 08:59:46;;;;;;;3.27;1.70;;;;;;;18.74;67.82;100921.45;124701;1093;64313;-83
2021/08/10 09:02:17;;;;;;;4.60;1.50;;;;;;;18.89;67.84;100923.80;124824;1093;64275;-78
2021/08/10 09:04:45;;;;;;;3.57;1.63;;;;;;;19.02;67.11;100917.44;124826;1093;64269;-78
2021/08/10 09:07:13;;;;;;;5.20;2.00;;;;;;;19.17;65.26;100922.42;124813;1093;64247;-77
2021/08/10 09:09:40;;;;;;;5.47;2.03;;;;;;;19.28;65.95;100923.53;124720;1093;64298;-75
2021/08/10 09:12:13;;;;;;;6.37;2.20;;;;;;;19.40;64.75;100924.38;124851;1093;64301;-79
2021/08/10 09:14:52;;;;;;;5.85;2.65;;;;;;;19.50;62.92;100923.84;124812;1092;64297;-79
2021/08/10 09:17:21;;;;;;;5.53;2.20;;;;;;;19.57;62.30;100916.48;124793;1093;64185;-80
2021/08/10 09:20:03;;;;;;;3.70;2.17;;;;;;;19.72;63.42;100911.55;124754;1092;64423;-79
2021/08/10 09:22:33;;;;;;;6.23;2.27;;;;;;;19.83;62.94;100911.81;124879;1093;64291;-81
2021/08/10 09:25:05;;;;;;;5.60;2.37;;;;;;;19.86;62.34;100912.15;124946;1093;64251;-78
2021/08/10 09:27:38;;;;;;;5.30;2.35;;;;;;;19.95;63.02;100907.25;124840;1092;64249;-80
2021/08/10 09:30:10;;;;;;;4.57;2.43;;;;;;;20.09;61.69;100908.67;124833;1093;64236;-78
2021/08/10 09:32:52;;;;;;;6.83;2.43;;;;;;;20.29;61.28;100913.70;124756;1093;64346;-76
2021/08/10 09:35:22;;;;;;;5.03;2.60;;;;;;;20.40;59.66;100919.34;124801;1093;64297;-80
2021/08/10 09:38:12;;;;;;;5.80;3.30;;;;;;;20.47;56.38;100912.78;124762;1092;64336;-79
2021/08/10 09:40:47;;;;;;;8.43;3.33;;;;;;;20.54;55.54;100912.66;124940;1093;64233;-81
2021/08/10 09:43:29;;;;;;;6.43;3.47;;;;;;;20.65;56.02;100903.76;124789;1093;64252;-78
2021/08/10 09:46:08;;;;;;;8.80;3.17;;;;;;;20.70;55.10;100906.58;124871;1093;64410;-78
2021/08/10 09:48:37;;;;;;;6.27;3.53;;;;;;;20.80;54.76;100902.45;124757;1093;64294;-79
2021/08/10 09:51:10;;;;;;;6.35;3.90;;;;;;;20.91;56.13;100897.05;124993;1093;64384;-82
2021/08/10 09:53:37;;;;;;;7.27;3.00;;;;;;;21.03;54.67;100904.27;124960;1093;64288;-79
2021/08/10 09:56:05;;;;;;;6.17;3.50;;;;;;;21.12;53.56;100908.22;124771;1093;64269;-80
2021/08/10 09:58:58;;;;;;;6.40;3.47;;;;;;;21.18;52.93;100901.87;124819;1093;64291;-79
2021/08/10 10:01:33;;;;;;;6.93;3.17;;;;;;;21.19;53.26;100898.13;124770;1093;64272;-79
2021/08/10 10:04:28;;;;;;;4.60;2.55;;;;;;;21.26;54.57;100892.58;125036;1093;64272;-81
2021/08/10 10:06:57;;;;;;;5.28;2.70;;;;;;;21.38;54.20;100904.15;124809;1093;64291;-79
2021/08/10 10:09:26;;;;;;;5.90;2.80;;;;;;;21.57;53.32;100902.91;124790;1093;64394;-79
2021/08/10 10:11:55;;;;;;;6.47;2.83;;;;;;;21.53;53.18;100909.04;124802;1093;64473;-77
2021/08/10 10:14:25;;;;;;;5.00;2.87;;;;;;;21.48;50.97;100900.83;124824;1092;64329;-80
2021/08/10 10:16:53;;;;;;;5.60;3.10;;;;;;;21.58;52.01;100898.32;124947;1093;65359;-76
2021/08/10 10:19:22;;;;;;;3.83;2.47;;;;;;;21.60;50.77;100887.28;124792;1093;64336;-79
2021/08/10 10:21:53;;;;;;;6.73;2.93;;;;;;;21.51;50.68;100901.17;124899;1092;64325;-76
2021/08/10 10:24:22;;;;;;;5.63;2.73;;;;;;;21.49;52.52;100892.50;124759;1092;64190;-80
2021/08/10 10:27:04;;;;;;;6.73;3.23;;;;;;;21.64;51.57;100899.23;124900;1093;64317;-79
2021/08/10 10:29:32;;;;;;;6.10;3.13;;;;;;;21.76;50.14;100890.00;124831;1093;64291;-79
2021/08/10 10:32:00;;;;;;;5.03;2.73;;;;;;;21.84;50.62;100887.95;124881;1092;64252;-79
2021/08/10 10:34:28;;;;;;;5.83;2.83;;;;;;;21.98;50.40;100873.87;124803;1092;64273;-79
2021/08/10 10:36:57;;;;;;;3.83;2.10;;;;;;;22.20;49.32;100881.21;124850;1092;64351;-79
2021/08/10 10:39:30;;;;;;;5.00;2.03;;;;;;;22.16;50.19;100874.66;125045;1092;64268;-78
2021/08/10 10:42:00;;;;;;;4.17;2.30;;;;;;;22.16;49.00;100856.56;124836;1093;64325;-80
2021/08/10 10:44:45;;;;;;;5.40;2.60;;;;;;;22.20;48.95;100871.22;124868;1093;64217;-79
2021/08/10 10:47:25;;;;;;;4.67;2.83;;;;;;;22.15;49.25;100862.23;124904;1092;65470;-77
2021/08/10 10:49:55;;;;;;;6.40;2.93;;;;;;;22.21;49.79;100866.66;124751;1093;64259;-79
2021/08/10 10:52:27;;;;;;;5.60;2.80;;;;;;;22.07;47.95;100866.16;124893;1092;64320;-81
2021/08/10 10:54:56;;;;;;;4.57;2.40;;;;;;;22.11;48.81;100855.69;124807;1093;64312;-79
2021/08/10 10:57:32;;;;;;;5.70;3.27;;;;;;;22.09;48.22;100874.84;124907;1093;64288;-79
2021/08/10 11:00:05;;;;;;;4.40;2.73;;;;;;;22.20;48.88;100859.59;124889;1093;64311;-80
2021/08/10 11:02:34;;;;;;;5.37;2.60;;;;;;;22.31;48.79;100850.59;124837;1093;64288;-80
2021/08/10 11:05:08;;;;;;;4.67;2.40;;;;;;;22.38;48.20;100858.55;125037;1092;64214;-79
2021/08/10 11:07:44;;;;;;;4.08;2.38;;;;;;;22.59;48.18;100852.33;124856;1093;64241;-80
2021/08/10 11:10:31;;;;;;;8.57;3.03;;;;;;;22.85;47.16;100858.05;125083;1093;64198;-79
2021/08/10 11:12:58;;;;;;;6.43;2.70;;;;;;;22.93;46.37;100843.23;124764;1093;64287;-78
2021/08/10 11:15:44;;;;;;;5.10;2.50;;;;;;;22.99;47.51;100853.05;124846;1092;64400;-79
2021/08/10 11:18:11;;;;;;;4.67;2.73;;;;;;;22.91;46.99;100854.33;124845;1093;64300;-79
2021/08/10 11:20:47;;;;;;;4.17;2.30;;;;;;;22.90;46.40;100849.98;124898;1093;64291;-77
2021/08/10 11:23:20;;;;;;;6.00;2.95;;;;;;;23.16;45.15;100848.42;124898;1091;64288;-79
2021/08/10 11:25:57;;;;;;;6.03;3.33;;;;;;;23.36;46.23;100853.20;124852;1093;64412;-78
2021/08/10 11:28:51;;;;;;;6.63;2.60;;;;;;;23.39;45.91;100849.16;124767;1092;64458;-79
2021/08/10 11:31:38;;;;;;;3.53;2.03;;;;;;;23.27;45.06;100857.45;124792;1093;64275;-78